AVA28 SKBO-KMCO
Flight info
| Callsign | AVA28 |
|---|---|
| Flight time | 2h 26m |
| Altitude | 34000 |
| Route | OSUSU4R GIKPU UW10 YACAR DCT EJA DCT OPNIR DCT CTG DCT VARON DCT BUTUM DCT NESMO/N0461F360 DCT KILER DCT EPSIM DCT ALTIB DCT ZEUSS DCT ZBV DCT PBI DCT BAIRN |
| Aircraft | A320/M-SDE3FGHIRWY/LB1 |
Departure
| Time | 2026-04-25 13:47 |
|---|---|
| Airport | El Dorado International Airport (SKBO) |
Arrival
| Time | 2026-04-25 16:14 |
|---|---|
| Airport | Orlando International Airport (KMCO) |
| Time | Latitude | Longitude | Altitude | Speed | Heading |
|---|---|---|---|---|---|
| 2026-04-25 13:01 | 4.69758 | -74.14675 | 8366 ft | 0 kts | 217° |
| 2026-04-25 13:21 | 4.69768 | -74.14667 | 8366 ft | 2 kts | 221° |
| 2026-04-25 13:21 | 4.69780 | -74.14656 | 8366 ft | 2 kts | 228° |
| 2026-04-25 13:21 | 4.69790 | -74.14643 | 8366 ft | 2 kts | 266° |
| 2026-04-25 13:21 | 4.69787 | -74.14628 | 8365 ft | 1 kts | 307° |
| 2026-04-25 13:22 | 4.69784 | -74.14625 | 8365 ft | 0 kts | 308° |
| 2026-04-25 13:26 | 4.69785 | -74.14626 | 8365 ft | 0 kts | 308° |
| 2026-04-25 13:26 | 4.69788 | -74.14629 | 8365 ft | 2 kts | 308° |
| 2026-04-25 13:26 | 4.69808 | -74.14655 | 8366 ft | 5 kts | 308° |
| 2026-04-25 13:26 | 4.69831 | -74.14685 | 8366 ft | 6 kts | 307° |
| 2026-04-25 13:27 | 4.69854 | -74.14716 | 8366 ft | 6 kts | 305° |
| 2026-04-25 13:27 | 4.69884 | -74.14762 | 8366 ft | 12 kts | 303° |
| 2026-04-25 13:27 | 4.69945 | -74.14847 | 8366 ft | 10 kts | 289° |
| 2026-04-25 13:27 | 4.69940 | -74.14869 | 8366 ft | 2 kts | 240° |
| 2026-04-25 13:28 | 4.69917 | -74.14887 | 8366 ft | 12 kts | 216° |
| 2026-04-25 13:28 | 4.69889 | -74.14908 | 8366 ft | 16 kts | 216° |
| 2026-04-25 13:28 | 4.69905 | -74.15043 | 8366 ft | 13 kts | 306° |
| 2026-04-25 13:28 | 4.69967 | -74.15126 | 8366 ft | 19 kts | 307° |
| 2026-04-25 13:29 | 4.70066 | -74.15257 | 8366 ft | 28 kts | 307° |
| 2026-04-25 13:29 | 4.70187 | -74.15416 | 8365 ft | 28 kts | 307° |
| 2026-04-25 13:29 | 4.70300 | -74.15566 | 8365 ft | 26 kts | 307° |
| 2026-04-25 13:30 | 4.70512 | -74.15843 | 8365 ft | 24 kts | 307° |
| 2026-04-25 13:30 | 4.70608 | -74.15973 | 8365 ft | 21 kts | 304° |
| 2026-04-25 13:30 | 4.70682 | -74.16071 | 8366 ft | 15 kts | 309° |
| 2026-04-25 13:31 | 4.70797 | -74.16221 | 8366 ft | 13 kts | 307° |
| 2026-04-25 13:31 | 4.70854 | -74.16297 | 8366 ft | 16 kts | 307° |
| 2026-04-25 13:31 | 4.70944 | -74.16411 | 8366 ft | 26 kts | 308° |
| 2026-04-25 13:31 | 4.71034 | -74.16533 | 8366 ft | 21 kts | 307° |
| 2026-04-25 13:32 | 4.71107 | -74.16631 | 8366 ft | 4 kts | 307° |
| 2026-04-25 13:32 | 4.71108 | -74.16632 | 8366 ft | 0 kts | 307° |
| 2026-04-25 13:36 | 4.71109 | -74.16632 | 8366 ft | 2 kts | 307° |
| 2026-04-25 13:36 | 4.71136 | -74.16670 | 8365 ft | 4 kts | 307° |
| 2026-04-25 13:36 | 4.71137 | -74.16670 | 8365 ft | 0 kts | 307° |
| 2026-04-25 13:37 | 4.71137 | -74.16671 | 8365 ft | 0 kts | 307° |
| 2026-04-25 13:38 | 4.71168 | -74.16711 | 8366 ft | 8 kts | 308° |
| 2026-04-25 13:39 | 4.71177 | -74.16722 | 8365 ft | 1 kts | 308° |
| 2026-04-25 13:39 | 4.71181 | -74.16727 | 8366 ft | 1 kts | 308° |
| 2026-04-25 13:39 | 4.71184 | -74.16731 | 8366 ft | 0 kts | 308° |
| 2026-04-25 13:40 | 4.71184 | -74.16732 | 8366 ft | 0 kts | 308° |
| 2026-04-25 13:40 | 4.71186 | -74.16734 | 8366 ft | 2 kts | 308° |
| 2026-04-25 13:40 | 4.71198 | -74.16753 | 8366 ft | 3 kts | 297° |
| 2026-04-25 13:41 | 4.71203 | -74.16776 | 8365 ft | 3 kts | 272° |
| 2026-04-25 13:41 | 4.71191 | -74.16796 | 8365 ft | 4 kts | 237° |
| 2026-04-25 13:41 | 4.71172 | -74.16817 | 8365 ft | 5 kts | 220° |
| 2026-04-25 13:41 | 4.71161 | -74.16826 | 8365 ft | 1 kts | 217° |
| 2026-04-25 13:42 | 4.71155 | -74.16829 | 8364 ft | 0 kts | 214° |
| 2026-04-25 13:43 | 4.71147 | -74.16835 | 8364 ft | 6 kts | 216° |
| 2026-04-25 13:43 | 4.71108 | -74.16864 | 8363 ft | 8 kts | 216° |
| 2026-04-25 13:44 | 4.71054 | -74.16886 | 8362 ft | 9 kts | 183° |
| 2026-04-25 13:44 | 4.71018 | -74.16873 | 8363 ft | 8 kts | 144° |
| 2026-04-25 13:44 | 4.70999 | -74.16850 | 8363 ft | 0 kts | 124° |
| 2026-04-25 13:46 | 4.70964 | -74.16801 | 8363 ft | 32 kts | 127° |
| 2026-04-25 13:46 | 4.70678 | -74.16425 | 8365 ft | 102 kts | 127° |
| 2026-04-25 13:47 | 4.70123 | -74.15691 | 8364 ft | 160 kts | 127° |
| 2026-04-25 13:47 | 4.69353 | -74.14667 | 8494 ft | 200 kts | 126° |
| 2026-04-25 13:47 | 4.68544 | -74.13534 | 9415 ft | 200 kts | 117° |
| 2026-04-25 13:47 | 4.68195 | -74.12183 | 10103 ft | 205 kts | 87° |
| 2026-04-25 13:48 | 4.68556 | -74.10791 | 10440 ft | 212 kts | 60° |
| 2026-04-25 13:48 | 4.69516 | -74.09691 | 10813 ft | 216 kts | 34° |
| 2026-04-25 13:48 | 4.70886 | -74.09076 | 11220 ft | 218 kts | 18° |
| 2026-04-25 13:48 | 4.72334 | -74.08601 | 11647 ft | 220 kts | 18° |
| 2026-04-25 13:49 | 4.73787 | -74.08122 | 12085 ft | 221 kts | 18° |
| 2026-04-25 13:49 | 4.75255 | -74.07636 | 12530 ft | 223 kts | 18° |
| 2026-04-25 13:49 | 4.76734 | -74.07145 | 12968 ft | 224 kts | 18° |
| 2026-04-25 13:49 | 4.78217 | -74.06652 | 13420 ft | 225 kts | 18° |
| 2026-04-25 13:50 | 4.79712 | -74.06151 | 13771 ft | 227 kts | 18° |
| 2026-04-25 13:50 | 4.81229 | -74.05643 | 14090 ft | 236 kts | 18° |
| 2026-04-25 13:50 | 4.82838 | -74.05104 | 14217 ft | 252 kts | 17° |
| 2026-04-25 13:50 | 4.84564 | -74.04524 | 14311 ft | 272 kts | 18° |
| 2026-04-25 13:51 | 4.86425 | -74.03895 | 14435 ft | 293 kts | 18° |
| 2026-04-25 13:51 | 4.88425 | -74.03219 | 14553 ft | 314 kts | 18° |
| 2026-04-25 13:51 | 4.90567 | -74.02496 | 14673 ft | 334 kts | 18° |
| 2026-04-25 13:51 | 4.92840 | -74.01726 | 14791 ft | 354 kts | 18° |
| 2026-04-25 13:52 | 4.95196 | -74.00927 | 14911 ft | 371 kts | 18° |
| 2026-04-25 13:52 | 4.97711 | -74.00074 | 15217 ft | 381 kts | 18° |
| 2026-04-25 13:52 | 5.00205 | -73.99227 | 15680 ft | 385 kts | 18° |
| 2026-04-25 13:52 | 5.02799 | -73.98374 | 16201 ft | 388 kts | 16° |
| 2026-04-25 13:53 | 5.05370 | -73.97647 | 16713 ft | 391 kts | 14° |
| 2026-04-25 13:53 | 5.08021 | -73.96985 | 17222 ft | 394 kts | 13° |
| 2026-04-25 13:53 | 5.10692 | -73.96362 | 17706 ft | 397 kts | 12° |
| 2026-04-25 13:53 | 5.13398 | -73.95737 | 18188 ft | 400 kts | 12° |
| 2026-04-25 13:54 | 5.16121 | -73.95099 | 18666 ft | 403 kts | 12° |
| 2026-04-25 13:54 | 5.18851 | -73.94443 | 19073 ft | 405 kts | 13° |
| 2026-04-25 13:54 | 5.21604 | -73.93765 | 19473 ft | 408 kts | 13° |
| 2026-04-25 13:54 | 5.24362 | -73.93075 | 19907 ft | 410 kts | 13° |
| 2026-04-25 13:55 | 5.27142 | -73.92375 | 20324 ft | 413 kts | 13° |
| 2026-04-25 13:55 | 5.29936 | -73.91671 | 20732 ft | 415 kts | 14° |
| 2026-04-25 13:55 | 5.32739 | -73.90968 | 21127 ft | 417 kts | 13° |
| 2026-04-25 13:55 | 5.35566 | -73.90263 | 21524 ft | 420 kts | 13° |
| 2026-04-25 13:56 | 5.38408 | -73.89555 | 21904 ft | 422 kts | 13° |
| 2026-04-25 13:56 | 5.41267 | -73.88843 | 22304 ft | 424 kts | 13° |
| 2026-04-25 13:56 | 5.44144 | -73.88127 | 22665 ft | 427 kts | 14° |
| 2026-04-25 13:56 | 5.47035 | -73.87405 | 23045 ft | 429 kts | 14° |
| 2026-04-25 13:57 | 5.49941 | -73.86677 | 23420 ft | 432 kts | 14° |
| 2026-04-25 13:57 | 5.51879 | -73.86193 | 23648 ft | 434 kts | 14° |
| 2026-04-25 13:57 | 5.55821 | -73.85248 | 24062 ft | 437 kts | 12° |
| 2026-04-25 13:57 | 5.58806 | -73.84612 | 24210 ft | 439 kts | 12° |
| 2026-04-25 13:58 | 5.61805 | -73.84014 | 24260 ft | 439 kts | 11° |
| 2026-04-25 13:58 | 5.64804 | -73.83434 | 24263 ft | 439 kts | 11° |
| 2026-04-25 13:58 | 5.67806 | -73.82851 | 24263 ft | 439 kts | 11° |
| 2026-04-25 13:58 | 5.70801 | -73.82259 | 24223 ft | 439 kts | 11° |
| 2026-04-25 13:59 | 5.73796 | -73.81650 | 24222 ft | 439 kts | 12° |
| 2026-04-25 13:59 | 5.76786 | -73.81029 | 24223 ft | 439 kts | 12° |
| 2026-04-25 13:59 | 5.79777 | -73.80405 | 24223 ft | 439 kts | 12° |
| 2026-04-25 13:59 | 5.82769 | -73.79783 | 24222 ft | 439 kts | 12° |
| 2026-04-25 14:00 | 5.84754 | -73.79371 | 24225 ft | 439 kts | 12° |
| 2026-04-25 14:00 | 5.88760 | -73.78544 | 24282 ft | 441 kts | 12° |
| 2026-04-25 14:00 | 5.91776 | -73.77923 | 24577 ft | 443 kts | 12° |
| 2026-04-25 14:00 | 5.94804 | -73.77299 | 24869 ft | 445 kts | 12° |
| 2026-04-25 14:01 | 5.97806 | -73.76678 | 25138 ft | 448 kts | 12° |
| 2026-04-25 14:01 | 6.00906 | -73.76037 | 25372 ft | 450 kts | 12° |
| 2026-04-25 14:01 | 6.03973 | -73.75404 | 25636 ft | 452 kts | 12° |
| 2026-04-25 14:01 | 6.07020 | -73.74776 | 25910 ft | 454 kts | 12° |
| 2026-04-25 14:02 | 6.10122 | -73.74139 | 26171 ft | 456 kts | 12° |
| 2026-04-25 14:02 | 6.13238 | -73.73499 | 26451 ft | 458 kts | 12° |
| 2026-04-25 14:02 | 6.16368 | -73.72854 | 26678 ft | 460 kts | 12° |
| 2026-04-25 14:02 | 6.18491 | -73.72417 | 26860 ft | 461 kts | 12° |
| 2026-04-25 14:03 | 6.22664 | -73.71556 | 27207 ft | 464 kts | 12° |
| 2026-04-25 14:03 | 6.25834 | -73.70904 | 27456 ft | 466 kts | 12° |
| 2026-04-25 14:03 | 6.29020 | -73.70250 | 27662 ft | 468 kts | 12° |
| 2026-04-25 14:03 | 6.32217 | -73.69592 | 27907 ft | 470 kts | 12° |
| 2026-04-25 14:04 | 6.35432 | -73.68929 | 28145 ft | 472 kts | 12° |
| 2026-04-25 14:04 | 6.38651 | -73.68266 | 28382 ft | 474 kts | 12° |
| 2026-04-25 14:04 | 6.41883 | -73.67602 | 28618 ft | 476 kts | 12° |
| 2026-04-25 14:04 | 6.45148 | -73.67011 | 28812 ft | 478 kts | 7° |
| 2026-04-25 14:05 | 6.48478 | -73.66875 | 29029 ft | 481 kts | 358° |
| 2026-04-25 14:05 | 6.51809 | -73.67272 | 29247 ft | 483 kts | 348° |
| 2026-04-25 14:05 | 6.55083 | -73.68099 | 29445 ft | 485 kts | 346° |
| 2026-04-25 14:05 | 6.58350 | -73.68962 | 29673 ft | 487 kts | 346° |
| 2026-04-25 14:06 | 6.61630 | -73.69823 | 29964 ft | 487 kts | 346° |
| 2026-04-25 14:06 | 6.64912 | -73.70680 | 30247 ft | 487 kts | 346° |
| 2026-04-25 14:06 | 6.68193 | -73.71533 | 30506 ft | 487 kts | 346° |
| 2026-04-25 14:06 | 6.71465 | -73.72381 | 30757 ft | 486 kts | 346° |
| 2026-04-25 14:07 | 6.74750 | -73.73231 | 31010 ft | 486 kts | 346° |
| 2026-04-25 14:07 | 6.78020 | -73.74078 | 31266 ft | 486 kts | 346° |
| 2026-04-25 14:07 | 6.81298 | -73.74928 | 31520 ft | 486 kts | 346° |
| 2026-04-25 14:07 | 6.84571 | -73.75782 | 31771 ft | 486 kts | 346° |
| 2026-04-25 14:08 | 6.87846 | -73.76640 | 32026 ft | 486 kts | 346° |
| 2026-04-25 14:08 | 6.91111 | -73.77494 | 32289 ft | 486 kts | 346° |
| 2026-04-25 14:08 | 6.94342 | -73.78336 | 32561 ft | 486 kts | 346° |
| 2026-04-25 14:08 | 6.97610 | -73.79188 | 32884 ft | 486 kts | 346° |
| 2026-04-25 14:09 | 7.00882 | -73.80043 | 33144 ft | 485 kts | 346° |
| 2026-04-25 14:09 | 7.04113 | -73.81038 | 33438 ft | 486 kts | 340° |
| 2026-04-25 14:09 | 7.07268 | -73.82257 | 33700 ft | 486 kts | 340° |
| 2026-04-25 14:09 | 7.09358 | -73.83063 | 33871 ft | 486 kts | 340° |
| 2026-04-25 14:10 | 7.13585 | -73.84692 | 34020 ft | 486 kts | 340° |
| 2026-04-25 14:10 | 7.19902 | -73.87130 | 34030 ft | 485 kts | 340° |
| 2026-04-25 14:11 | 7.26211 | -73.89563 | 34030 ft | 485 kts | 340° |
| 2026-04-25 14:11 | 7.32520 | -73.91993 | 34019 ft | 486 kts | 339° |
| 2026-04-25 14:12 | 7.38836 | -73.94433 | 34035 ft | 486 kts | 339° |
| 2026-04-25 14:12 | 7.45157 | -73.96881 | 34036 ft | 486 kts | 339° |
| 2026-04-25 14:13 | 7.51435 | -73.99305 | 34028 ft | 486 kts | 339° |
| 2026-04-25 14:13 | 7.57752 | -74.01747 | 34046 ft | 485 kts | 339° |
| 2026-04-25 14:14 | 7.64043 | -74.04176 | 34046 ft | 483 kts | 339° |
| 2026-04-25 14:14 | 7.70309 | -74.06600 | 34052 ft | 481 kts | 339° |
| 2026-04-25 14:15 | 7.76555 | -74.09020 | 34069 ft | 480 kts | 339° |
| 2026-04-25 14:15 | 7.82790 | -74.11433 | 34057 ft | 480 kts | 339° |
| 2026-04-25 14:16 | 7.89016 | -74.13840 | 34052 ft | 479 kts | 339° |
| 2026-04-25 14:16 | 7.95206 | -74.16332 | 34050 ft | 479 kts | 333° |
| 2026-04-25 14:17 | 8.00972 | -74.19684 | 34047 ft | 479 kts | 329° |
| 2026-04-25 14:17 | 8.06714 | -74.23088 | 34041 ft | 479 kts | 329° |
| 2026-04-25 14:18 | 8.12462 | -74.26486 | 34037 ft | 479 kts | 329° |
| 2026-04-25 14:18 | 8.18212 | -74.29882 | 34029 ft | 479 kts | 329° |
| 2026-04-25 14:19 | 8.23961 | -74.33281 | 34031 ft | 479 kts | 329° |
| 2026-04-25 14:19 | 8.29665 | -74.36665 | 34035 ft | 478 kts | 329° |
| 2026-04-25 14:20 | 8.35393 | -74.40057 | 34040 ft | 476 kts | 329° |
| 2026-04-25 14:20 | 8.41092 | -74.43435 | 34027 ft | 474 kts | 328° |
| 2026-04-25 14:21 | 8.46777 | -74.46814 | 34027 ft | 474 kts | 329° |
| 2026-04-25 14:21 | 8.52460 | -74.50185 | 34004 ft | 473 kts | 329° |
| 2026-04-25 14:22 | 8.58140 | -74.53543 | 34003 ft | 474 kts | 329° |
| 2026-04-25 14:22 | 8.63830 | -74.56912 | 33990 ft | 473 kts | 328° |
| 2026-04-25 14:23 | 8.69505 | -74.60292 | 33982 ft | 473 kts | 328° |
| 2026-04-25 14:23 | 8.75180 | -74.63668 | 33983 ft | 473 kts | 328° |
| 2026-04-25 14:24 | 8.80821 | -74.67018 | 33974 ft | 474 kts | 329° |
| 2026-04-25 14:24 | 8.86539 | -74.70414 | 33970 ft | 474 kts | 328° |
| 2026-04-25 14:25 | 8.92189 | -74.73779 | 33969 ft | 474 kts | 328° |
| 2026-04-25 14:25 | 8.97882 | -74.77164 | 33969 ft | 475 kts | 328° |
| 2026-04-25 14:26 | 9.03577 | -74.80550 | 33970 ft | 475 kts | 328° |
| 2026-04-25 14:26 | 9.09276 | -74.83946 | 33969 ft | 475 kts | 328° |
| 2026-04-25 14:27 | 9.14964 | -74.87334 | 33968 ft | 475 kts | 328° |
| 2026-04-25 14:27 | 9.20655 | -74.90729 | 33973 ft | 475 kts | 328° |
| 2026-04-25 14:28 | 9.26347 | -74.94119 | 33980 ft | 474 kts | 329° |
| 2026-04-25 14:28 | 9.32040 | -74.97502 | 33981 ft | 474 kts | 328° |
| 2026-04-25 14:29 | 9.37729 | -75.00893 | 33976 ft | 474 kts | 328° |
| 2026-04-25 14:29 | 9.43417 | -75.04285 | 33976 ft | 474 kts | 328° |
| 2026-04-25 14:30 | 9.49101 | -75.07681 | 33976 ft | 474 kts | 328° |
| 2026-04-25 14:30 | 9.57622 | -75.12766 | 33981 ft | 473 kts | 328° |
| 2026-04-25 14:31 | 9.63296 | -75.16155 | 33989 ft | 473 kts | 328° |
| 2026-04-25 14:31 | 9.68965 | -75.19546 | 33984 ft | 473 kts | 328° |
| 2026-04-25 14:32 | 9.73681 | -75.22366 | 33980 ft | 473 kts | 328° |
| 2026-04-25 14:32 | 9.79343 | -75.25755 | 33980 ft | 473 kts | 328° |
| 2026-04-25 14:33 | 9.85008 | -75.29145 | 33977 ft | 473 kts | 328° |
| 2026-04-25 14:33 | 9.90673 | -75.32538 | 33976 ft | 473 kts | 328° |
| 2026-04-25 14:34 | 9.96342 | -75.35932 | 33969 ft | 473 kts | 328° |
| 2026-04-25 14:34 | 10.02021 | -75.39335 | 33968 ft | 474 kts | 328° |
| 2026-04-25 14:35 | 10.07696 | -75.42732 | 33966 ft | 474 kts | 328° |
| 2026-04-25 14:35 | 10.13369 | -75.46130 | 33977 ft | 473 kts | 328° |
| 2026-04-25 14:36 | 10.19037 | -75.49519 | 33985 ft | 473 kts | 330° |
| 2026-04-25 14:36 | 10.25151 | -75.51843 | 33990 ft | 474 kts | 343° |
| 2026-04-25 14:37 | 10.31507 | -75.53646 | 33985 ft | 474 kts | 342° |
| 2026-04-25 14:37 | 10.37849 | -75.55481 | 33984 ft | 474 kts | 342° |
| 2026-04-25 14:38 | 10.44188 | -75.57313 | 33980 ft | 474 kts | 342° |
| 2026-04-25 14:38 | 10.50540 | -75.59136 | 33979 ft | 474 kts | 342° |
| 2026-04-25 14:39 | 10.56885 | -75.60959 | 33974 ft | 474 kts | 342° |
| 2026-04-25 14:39 | 10.63228 | -75.62780 | 33973 ft | 474 kts | 343° |
| 2026-04-25 14:40 | 10.69572 | -75.64602 | 33969 ft | 474 kts | 342° |
| 2026-04-25 14:40 | 10.75913 | -75.66429 | 33969 ft | 474 kts | 342° |
| 2026-04-25 14:41 | 10.82256 | -75.68254 | 33969 ft | 474 kts | 342° |
| 2026-04-25 14:41 | 10.88558 | -75.70068 | 33969 ft | 474 kts | 342° |
| 2026-04-25 14:42 | 10.93873 | -75.71603 | 33971 ft | 474 kts | 342° |
| 2026-04-25 14:42 | 11.01245 | -75.73724 | 33967 ft | 474 kts | 342° |
| 2026-04-25 14:43 | 11.07598 | -75.75537 | 33963 ft | 474 kts | 343° |
| 2026-04-25 14:43 | 11.13971 | -75.77297 | 33962 ft | 475 kts | 343° |
| 2026-04-25 14:44 | 11.20348 | -75.79051 | 33961 ft | 475 kts | 343° |
| 2026-04-25 14:44 | 11.26736 | -75.80821 | 33955 ft | 476 kts | 342° |
| 2026-04-25 14:45 | 11.33129 | -75.82609 | 33958 ft | 476 kts | 342° |
| 2026-04-25 14:45 | 11.39521 | -75.84392 | 33956 ft | 477 kts | 342° |
| 2026-04-25 14:46 | 11.45923 | -75.86168 | 33959 ft | 477 kts | 342° |
| 2026-04-25 14:46 | 11.52292 | -75.87939 | 33962 ft | 477 kts | 342° |
| 2026-04-25 14:47 | 11.57662 | -75.89433 | 33963 ft | 477 kts | 342° |
| 2026-04-25 14:47 | 11.65109 | -75.91510 | 33964 ft | 477 kts | 342° |
| 2026-04-25 14:48 | 11.71512 | -75.93297 | 33975 ft | 477 kts | 341° |
| 2026-04-25 14:48 | 11.77918 | -75.95086 | 33976 ft | 477 kts | 341° |
| 2026-04-25 14:49 | 11.84318 | -75.96890 | 33975 ft | 477 kts | 341° |
| 2026-04-25 14:49 | 11.90717 | -75.98713 | 33975 ft | 477 kts | 341° |
| 2026-04-25 14:50 | 11.97108 | -76.00538 | 33973 ft | 477 kts | 341° |
| 2026-04-25 14:50 | 12.03499 | -76.02359 | 33974 ft | 477 kts | 341° |
| 2026-04-25 14:51 | 12.09903 | -76.04189 | 33976 ft | 477 kts | 341° |
| 2026-04-25 14:51 | 12.16252 | -76.06002 | 33975 ft | 477 kts | 341° |
| 2026-04-25 14:52 | 12.22637 | -76.07832 | 33976 ft | 477 kts | 340° |
| 2026-04-25 14:52 | 12.27995 | -76.09358 | 33974 ft | 477 kts | 341° |
| 2026-04-25 14:53 | 12.35425 | -76.11468 | 33979 ft | 477 kts | 341° |
| 2026-04-25 14:53 | 12.41815 | -76.13298 | 33976 ft | 477 kts | 340° |
| 2026-04-25 14:54 | 12.48199 | -76.15134 | 33982 ft | 476 kts | 341° |
| 2026-04-25 14:54 | 12.54588 | -76.16964 | 33983 ft | 476 kts | 341° |
| 2026-04-25 14:55 | 12.60962 | -76.18791 | 33981 ft | 475 kts | 341° |
| 2026-04-25 14:55 | 12.67334 | -76.20617 | 33980 ft | 475 kts | 341° |
| 2026-04-25 14:56 | 12.73702 | -76.22446 | 33983 ft | 475 kts | 341° |
| 2026-04-25 14:56 | 12.80065 | -76.24277 | 33997 ft | 474 kts | 341° |
| 2026-04-25 14:57 | 12.86409 | -76.26098 | 33999 ft | 472 kts | 341° |
| 2026-04-25 14:57 | 12.92731 | -76.27914 | 33996 ft | 471 kts | 341° |
| 2026-04-25 14:58 | 12.99039 | -76.29725 | 33996 ft | 470 kts | 341° |
| 2026-04-25 14:58 | 13.05296 | -76.31521 | 33994 ft | 470 kts | 341° |
| 2026-04-25 14:59 | 13.11589 | -76.33329 | 33989 ft | 469 kts | 341° |
| 2026-04-25 14:59 | 13.17877 | -76.35145 | 33987 ft | 469 kts | 340° |
| 2026-04-25 15:00 | 13.24172 | -76.36963 | 33983 ft | 470 kts | 341° |
| 2026-04-25 15:00 | 13.30460 | -76.38767 | 33981 ft | 470 kts | 341° |
| 2026-04-25 15:01 | 13.36758 | -76.40577 | 33981 ft | 470 kts | 341° |
| 2026-04-25 15:01 | 13.43046 | -76.42396 | 33980 ft | 470 kts | 341° |
| 2026-04-25 15:02 | 13.49337 | -76.44208 | 33990 ft | 470 kts | 340° |
| 2026-04-25 15:02 | 13.55629 | -76.46025 | 33985 ft | 469 kts | 340° |
| 2026-04-25 15:03 | 13.61916 | -76.47846 | 33979 ft | 469 kts | 340° |
| 2026-04-25 15:03 | 13.68206 | -76.49664 | 33977 ft | 469 kts | 340° |
| 2026-04-25 15:04 | 13.74489 | -76.51482 | 33980 ft | 470 kts | 340° |
| 2026-04-25 15:04 | 13.80786 | -76.53313 | 33962 ft | 471 kts | 340° |
| 2026-04-25 15:05 | 13.87097 | -76.55147 | 33990 ft | 471 kts | 341° |
| 2026-04-25 15:06 | 13.96519 | -76.57866 | 33973 ft | 471 kts | 341° |
| 2026-04-25 15:06 | 14.02820 | -76.59698 | 33970 ft | 471 kts | 341° |
| 2026-04-25 15:07 | 14.09164 | -76.61543 | 33986 ft | 470 kts | 341° |
| 2026-04-25 15:07 | 14.15424 | -76.63364 | 33979 ft | 470 kts | 341° |
| 2026-04-25 15:08 | 14.21764 | -76.65203 | 33971 ft | 470 kts | 341° |
| 2026-04-25 15:08 | 14.28065 | -76.67036 | 33993 ft | 470 kts | 341° |
| 2026-04-25 15:09 | 14.34326 | -76.68854 | 33979 ft | 470 kts | 341° |
| 2026-04-25 15:09 | 14.43773 | -76.71605 | 33985 ft | 470 kts | 341° |
| 2026-04-25 15:10 | 14.50076 | -76.73446 | 33971 ft | 470 kts | 341° |
| 2026-04-25 15:11 | 14.59518 | -76.76195 | 34006 ft | 470 kts | 341° |
| 2026-04-25 15:11 | 14.65803 | -76.78020 | 34006 ft | 468 kts | 341° |
| 2026-04-25 15:12 | 14.75202 | -76.80774 | 33989 ft | 467 kts | 341° |
| 2026-04-25 15:12 | 14.79389 | -76.82002 | 33993 ft | 467 kts | 341° |
| 2026-04-25 15:13 | 14.90831 | -76.85346 | 34003 ft | 467 kts | 341° |
| 2026-04-25 15:14 | 14.97060 | -76.87164 | 33991 ft | 466 kts | 341° |
| 2026-04-25 15:14 | 15.03317 | -76.88913 | 33988 ft | 466 kts | 343° |
| 2026-04-25 15:15 | 15.09693 | -76.90379 | 33986 ft | 466 kts | 345° |
| 2026-04-25 15:15 | 15.16003 | -76.91734 | 33996 ft | 466 kts | 345° |
| 2026-04-25 15:16 | 15.22346 | -76.93160 | 33980 ft | 466 kts | 344° |
| 2026-04-25 15:16 | 15.31814 | -76.95363 | 34005 ft | 464 kts | 343° |
| 2026-04-25 15:17 | 15.41249 | -76.97568 | 33995 ft | 462 kts | 343° |
| 2026-04-25 15:18 | 15.47530 | -76.99021 | 33994 ft | 462 kts | 343° |
| 2026-04-25 15:18 | 15.55880 | -77.00947 | 33992 ft | 462 kts | 343° |
| 2026-04-25 15:19 | 15.61126 | -77.02169 | 34002 ft | 461 kts | 343° |
| 2026-04-25 15:19 | 15.68399 | -77.03865 | 34003 ft | 460 kts | 343° |
| 2026-04-25 15:20 | 15.74641 | -77.05308 | 33999 ft | 459 kts | 343° |
| 2026-04-25 15:20 | 15.80877 | -77.06752 | 33996 ft | 459 kts | 343° |
| 2026-04-25 15:21 | 15.87108 | -77.08205 | 33993 ft | 458 kts | 343° |
| 2026-04-25 15:21 | 15.93335 | -77.09652 | 33990 ft | 458 kts | 343° |
| 2026-04-25 15:22 | 15.99554 | -77.11099 | 34003 ft | 458 kts | 342° |
| 2026-04-25 15:22 | 16.05772 | -77.12546 | 33999 ft | 457 kts | 342° |
| 2026-04-25 15:23 | 16.11978 | -77.13997 | 33995 ft | 457 kts | 342° |
| 2026-04-25 15:23 | 16.18185 | -77.15449 | 33991 ft | 457 kts | 342° |
| 2026-04-25 15:24 | 16.24350 | -77.16892 | 33986 ft | 457 kts | 342° |
| 2026-04-25 15:24 | 16.29542 | -77.18105 | 33985 ft | 457 kts | 342° |
| 2026-04-25 15:25 | 16.36754 | -77.19786 | 33986 ft | 457 kts | 342° |
| 2026-04-25 15:25 | 16.42966 | -77.21241 | 33978 ft | 458 kts | 342° |
| 2026-04-25 15:26 | 16.49184 | -77.22698 | 33974 ft | 458 kts | 342° |
| 2026-04-25 15:26 | 16.55416 | -77.24156 | 33976 ft | 458 kts | 342° |
| 2026-04-25 15:27 | 16.61640 | -77.25609 | 33980 ft | 458 kts | 342° |
| 2026-04-25 15:28 | 16.86332 | -77.31410 | 33993 ft | 456 kts | 342° |
| 2026-04-25 15:28 | 17.10885 | -77.37194 | 33997 ft | 453 kts | 342° |
| 2026-04-25 15:29 | 17.35420 | -77.42975 | 33999 ft | 451 kts | 342° |
| 2026-04-25 15:29 | 17.60050 | -77.48806 | 33983 ft | 450 kts | 342° |
| 2026-04-25 15:30 | 17.84313 | -77.54575 | 33981 ft | 449 kts | 342° |
| 2026-04-25 15:30 | 18.08720 | -77.60372 | 34018 ft | 449 kts | 341° |
| 2026-04-25 15:31 | 18.32952 | -77.66161 | 33985 ft | 444 kts | 341° |
| 2026-04-25 15:31 | 18.56986 | -77.71926 | 33986 ft | 443 kts | 341° |
| 2026-04-25 15:32 | 18.65853 | -77.74060 | 33979 ft | 442 kts | 341° |
| 2026-04-25 15:32 | 18.89824 | -77.79813 | 33978 ft | 440 kts | 341° |
| 2026-04-25 15:33 | 19.25477 | -77.88400 | 33986 ft | 436 kts | 340° |
| 2026-04-25 15:33 | 19.49077 | -77.94119 | 33983 ft | 434 kts | 340° |
| 2026-04-25 15:34 | 19.72600 | -77.99839 | 33970 ft | 433 kts | 340° |
| 2026-04-25 15:34 | 19.92304 | -78.04020 | 33984 ft | 436 kts | 343° |
| 2026-04-25 15:35 | 20.32042 | -78.11122 | 33969 ft | 432 kts | 342° |
| 2026-04-25 15:36 | 20.67520 | -78.17567 | 33963 ft | 430 kts | 341° |
| 2026-04-25 15:36 | 20.91073 | -78.21875 | 33976 ft | 429 kts | 341° |
| 2026-04-25 15:37 | 21.14654 | -78.26185 | 33959 ft | 429 kts | 341° |
| 2026-04-25 15:37 | 21.38060 | -78.30473 | 33968 ft | 429 kts | 341° |
| 2026-04-25 15:38 | 21.61592 | -78.34810 | 33968 ft | 429 kts | 341° |
| 2026-04-25 15:38 | 21.85133 | -78.39169 | 33965 ft | 429 kts | 341° |
| 2026-04-25 15:39 | 22.08653 | -78.43523 | 33997 ft | 429 kts | 341° |
| 2026-04-25 15:39 | 22.32179 | -78.47906 | 33976 ft | 428 kts | 341° |
| 2026-04-25 15:40 | 22.47843 | -78.50828 | 33948 ft | 424 kts | 341° |
| 2026-04-25 15:40 | 22.78778 | -78.56618 | 33987 ft | 425 kts | 341° |
| 2026-04-25 15:41 | 23.02106 | -78.60997 | 34013 ft | 425 kts | 341° |
| 2026-04-25 15:41 | 23.25479 | -78.65419 | 33980 ft | 426 kts | 341° |
| 2026-04-25 15:42 | 23.48891 | -78.69848 | 33989 ft | 427 kts | 342° |
| 2026-04-25 15:42 | 23.72288 | -78.74308 | 34002 ft | 427 kts | 342° |
| 2026-04-25 15:43 | 23.95824 | -78.78780 | 33978 ft | 429 kts | 342° |
| 2026-04-25 15:43 | 24.18765 | -78.85024 | 33980 ft | 425 kts | 338° |
| 2026-04-25 15:44 | 24.41708 | -78.91651 | 33980 ft | 426 kts | 338° |
| 2026-04-25 15:44 | 24.64514 | -78.98298 | 34007 ft | 427 kts | 338° |
| 2026-04-25 15:45 | 24.87531 | -79.05016 | 33979 ft | 428 kts | 338° |
| 2026-04-25 15:45 | 25.02943 | -79.09542 | 33997 ft | 429 kts | 338° |
| 2026-04-25 15:46 | 25.33647 | -79.18565 | 33993 ft | 430 kts | 339° |
| 2026-04-25 15:46 | 25.56776 | -79.25411 | 34015 ft | 431 kts | 340° |
| 2026-04-25 15:47 | 25.78237 | -79.35794 | 33979 ft | 420 kts | 320° |
| 2026-04-25 15:47 | 25.97271 | -79.51061 | 33985 ft | 422 kts | 321° |
| 2026-04-25 15:48 | 26.16290 | -79.66456 | 33988 ft | 423 kts | 321° |
| 2026-04-25 15:48 | 26.35407 | -79.82000 | 33980 ft | 426 kts | 321° |
| 2026-04-25 15:49 | 26.54553 | -79.97619 | 33991 ft | 427 kts | 322° |
| 2026-04-25 15:49 | 26.73823 | -80.13346 | 33975 ft | 430 kts | 323° |
| 2026-04-25 15:50 | 26.80867 | -80.18948 | 33967 ft | 430 kts | 323° |
| 2026-04-25 15:50 | 26.85734 | -80.22840 | 33980 ft | 430 kts | 323° |
| 2026-04-25 15:51 | 26.88958 | -80.25437 | 33970 ft | 431 kts | 323° |
| 2026-04-25 15:51 | 26.95481 | -80.30696 | 33969 ft | 432 kts | 323° |
| 2026-04-25 15:52 | 27.00337 | -80.34602 | 33970 ft | 433 kts | 323° |
| 2026-04-25 15:52 | 27.05239 | -80.38555 | 33624 ft | 434 kts | 323° |
| 2026-04-25 15:53 | 27.07686 | -80.40532 | 33358 ft | 435 kts | 324° |
| 2026-04-25 15:53 | 27.10147 | -80.42517 | 33097 ft | 436 kts | 324° |
| 2026-04-25 15:53 | 27.12616 | -80.44506 | 32835 ft | 437 kts | 324° |
| 2026-04-25 15:53 | 27.15086 | -80.46499 | 32582 ft | 438 kts | 324° |
| 2026-04-25 15:54 | 27.17565 | -80.48505 | 32326 ft | 440 kts | 324° |
| 2026-04-25 15:54 | 27.20049 | -80.50516 | 32030 ft | 441 kts | 324° |
| 2026-04-25 15:54 | 27.22556 | -80.52547 | 31011 ft | 449 kts | 324° |
| 2026-04-25 15:54 | 27.25083 | -80.54593 | 30434 ft | 445 kts | 325° |
| 2026-04-25 15:55 | 27.27592 | -80.56623 | 29786 ft | 443 kts | 325° |
| 2026-04-25 15:55 | 27.30083 | -80.58638 | 29142 ft | 439 kts | 325° |
| 2026-04-25 15:55 | 27.32550 | -80.60637 | 28529 ft | 435 kts | 324° |
| 2026-04-25 15:55 | 27.34991 | -80.62619 | 27931 ft | 431 kts | 324° |
| 2026-04-25 15:56 | 27.37405 | -80.64583 | 27338 ft | 427 kts | 324° |
| 2026-04-25 15:56 | 27.39802 | -80.66531 | 26751 ft | 423 kts | 324° |
| 2026-04-25 15:56 | 27.42179 | -80.68460 | 26168 ft | 419 kts | 324° |
| 2026-04-25 15:56 | 27.44534 | -80.70371 | 25586 ft | 416 kts | 324° |
| 2026-04-25 15:57 | 27.46875 | -80.72275 | 25022 ft | 413 kts | 324° |
| 2026-04-25 15:57 | 27.49191 | -80.74162 | 24460 ft | 410 kts | 323° |
| 2026-04-25 15:57 | 27.51462 | -80.76013 | 23926 ft | 406 kts | 323° |
| 2026-04-25 15:57 | 27.53737 | -80.77868 | 23383 ft | 403 kts | 323° |
| 2026-04-25 15:58 | 27.55993 | -80.79708 | 22849 ft | 397 kts | 323° |
| 2026-04-25 15:58 | 27.58241 | -80.81544 | 22364 ft | 391 kts | 323° |
| 2026-04-25 15:58 | 27.60395 | -80.83305 | 21913 ft | 385 kts | 323° |
| 2026-04-25 15:58 | 27.62547 | -80.85063 | 21455 ft | 380 kts | 323° |
| 2026-04-25 15:59 | 27.66486 | -80.88279 | 20617 ft | 371 kts | 323° |
| 2026-04-25 15:59 | 27.70614 | -80.91662 | 19710 ft | 364 kts | 323° |
| 2026-04-25 15:59 | 27.74679 | -80.94998 | 18798 ft | 359 kts | 323° |
| 2026-04-25 15:59 | 27.78714 | -80.98295 | 17816 ft | 357 kts | 322° |
| 2026-04-25 16:00 | 27.82704 | -81.01567 | 16889 ft | 352 kts | 323° |
| 2026-04-25 16:00 | 27.84195 | -81.02792 | 16537 ft | 351 kts | 323° |
| 2026-04-25 16:00 | 27.87647 | -81.05626 | 15746 ft | 347 kts | 323° |
| 2026-04-25 16:00 | 27.89591 | -81.07236 | 15309 ft | 345 kts | 323° |
| 2026-04-25 16:01 | 27.91538 | -81.08809 | 14877 ft | 343 kts | 328° |
| 2026-04-25 16:01 | 27.93764 | -81.09742 | 14450 ft | 343 kts | 349° |
| 2026-04-25 16:01 | 27.96124 | -81.10053 | 14044 ft | 341 kts | 353° |
| 2026-04-25 16:01 | 27.98486 | -81.10304 | 13543 ft | 340 kts | 353° |
| 2026-04-25 16:02 | 28.00843 | -81.10552 | 13028 ft | 339 kts | 353° |
| 2026-04-25 16:02 | 28.03190 | -81.10800 | 12511 ft | 338 kts | 353° |
| 2026-04-25 16:02 | 28.05521 | -81.11051 | 12011 ft | 337 kts | 353° |
| 2026-04-25 16:02 | 28.07848 | -81.11303 | 11515 ft | 335 kts | 353° |
| 2026-04-25 16:03 | 28.10166 | -81.11560 | 11027 ft | 333 kts | 353° |
| 2026-04-25 16:03 | 28.12471 | -81.11821 | 10547 ft | 332 kts | 353° |
| 2026-04-25 16:03 | 28.14765 | -81.12087 | 10079 ft | 331 kts | 353° |
| 2026-04-25 16:03 | 28.17047 | -81.12354 | 9585 ft | 329 kts | 353° |
| 2026-04-25 16:04 | 28.19303 | -81.12623 | 9262 ft | 320 kts | 353° |
| 2026-04-25 16:04 | 28.20743 | -81.12795 | 9259 ft | 309 kts | 353° |
| 2026-04-25 16:04 | 28.23474 | -81.13120 | 9254 ft | 288 kts | 353° |
| 2026-04-25 16:04 | 28.24816 | -81.13277 | 9238 ft | 285 kts | 353° |
| 2026-04-25 16:05 | 28.27403 | -81.13580 | 8815 ft | 281 kts | 353° |
| 2026-04-25 16:05 | 28.29350 | -81.13809 | 8397 ft | 280 kts | 353° |
| 2026-04-25 16:05 | 28.32587 | -81.14191 | 7762 ft | 278 kts | 353° |
| 2026-04-25 16:06 | 28.34487 | -81.14418 | 7359 ft | 278 kts | 353° |
| 2026-04-25 16:06 | 28.36407 | -81.14651 | 6996 ft | 277 kts | 353° |
| 2026-04-25 16:06 | 28.38318 | -81.14882 | 6711 ft | 273 kts | 353° |
| 2026-04-25 16:06 | 28.40188 | -81.15113 | 6491 ft | 267 kts | 353° |
| 2026-04-25 16:07 | 28.42029 | -81.15341 | 6166 ft | 265 kts | 353° |
| 2026-04-25 16:07 | 28.43225 | -81.15489 | 6068 ft | 258 kts | 353° |
| 2026-04-25 16:07 | 28.45585 | -81.15785 | 5705 ft | 253 kts | 353° |
| 2026-04-25 16:07 | 28.47325 | -81.15998 | 5386 ft | 251 kts | 353° |
| 2026-04-25 16:08 | 28.49057 | -81.16212 | 5059 ft | 250 kts | 353° |
| 2026-04-25 16:08 | 28.50780 | -81.16428 | 4775 ft | 247 kts | 352° |
| 2026-04-25 16:08 | 28.52456 | -81.16631 | 4640 ft | 237 kts | 353° |
| 2026-04-25 16:08 | 28.54079 | -81.16833 | 4430 ft | 232 kts | 353° |
| 2026-04-25 16:09 | 28.55645 | -81.17093 | 4078 ft | 225 kts | 340° |
| 2026-04-25 16:09 | 28.56910 | -81.18061 | 3655 ft | 220 kts | 306° |
| 2026-04-25 16:09 | 28.57480 | -81.19657 | 3319 ft | 220 kts | 278° |
| 2026-04-25 16:09 | 28.57645 | -81.21392 | 3047 ft | 221 kts | 273° |
| 2026-04-25 16:10 | 28.57756 | -81.23117 | 2894 ft | 215 kts | 271° |
| 2026-04-25 16:10 | 28.57709 | -81.24798 | 2769 ft | 209 kts | 264° |
| 2026-04-25 16:10 | 28.57568 | -81.26412 | 2644 ft | 201 kts | 258° |
| 2026-04-25 16:10 | 28.56975 | -81.27777 | 2555 ft | 191 kts | 221° |
| 2026-04-25 16:11 | 28.55882 | -81.28580 | 2445 ft | 184 kts | 206° |
| 2026-04-25 16:11 | 28.54652 | -81.28799 | 2144 ft | 185 kts | 165° |
| 2026-04-25 16:11 | 28.53436 | -81.28323 | 1853 ft | 185 kts | 169° |
| 2026-04-25 16:11 | 28.52183 | -81.28325 | 1617 ft | 176 kts | 181° |
| 2026-04-25 16:12 | 28.50986 | -81.28326 | 1393 ft | 167 kts | 180° |
| 2026-04-25 16:12 | 28.49852 | -81.28314 | 1177 ft | 159 kts | 180° |
| 2026-04-25 16:12 | 28.48797 | -81.28302 | 1038 ft | 146 kts | 180° |
| 2026-04-25 16:12 | 28.48120 | -81.28295 | 919 ft | 142 kts | 179° |
| 2026-04-25 16:13 | 28.46827 | -81.28285 | 608 ft | 140 kts | 180° |
| 2026-04-25 16:13 | 28.45866 | -81.28271 | 422 ft | 138 kts | 179° |
| 2026-04-25 16:13 | 28.44908 | -81.28265 | 255 ft | 137 kts | 181° |
| 2026-04-25 16:13 | 28.43964 | -81.28253 | 111 ft | 131 kts | 181° |
| 2026-04-25 16:14 | 28.43178 | -81.28247 | 102 ft | 90 kts | 180° |
| 2026-04-25 16:14 | 28.42726 | -81.28243 | 104 ft | 37 kts | 180° |
| 2026-04-25 16:14 | 28.42558 | -81.28289 | 107 ft | 17 kts | 223° |
| 2026-04-25 16:14 | 28.42505 | -81.28405 | 107 ft | 20 kts | 249° |
| 2026-04-25 16:15 | 28.42447 | -81.28599 | 106 ft | 30 kts | 249° |
| 2026-04-25 16:15 | 28.42385 | -81.28796 | 107 ft | 18 kts | 253° |
| 2026-04-25 16:15 | 28.42342 | -81.28946 | 108 ft | 22 kts | 251° |
| 2026-04-25 16:15 | 28.42293 | -81.29119 | 108 ft | 24 kts | 260° |
| 2026-04-25 16:16 | 28.42284 | -81.29324 | 105 ft | 28 kts | 269° |
| 2026-04-25 16:16 | 28.42282 | -81.29558 | 100 ft | 31 kts | 270° |
| 2026-04-25 16:16 | 28.42280 | -81.29775 | 102 ft | 22 kts | 270° |
| 2026-04-25 16:16 | 28.42279 | -81.29949 | 105 ft | 23 kts | 269° |
| 2026-04-25 16:17 | 28.42283 | -81.30109 | 103 ft | 15 kts | 287° |
| 2026-04-25 16:17 | 28.42377 | -81.30137 | 103 ft | 16 kts | 359° |
| 2026-04-25 16:17 | 28.42437 | -81.30073 | 103 ft | 14 kts | 104° |
| 2026-04-25 16:17 | 28.42446 | -81.29959 | 102 ft | 13 kts | 62° |
| 2026-04-25 16:18 | 28.42492 | -81.29931 | 103 ft | 4 kts | 330° |
| 2026-04-25 16:18 | 28.42498 | -81.29939 | 103 ft | 4 kts | 315° |
| 2026-04-25 16:18 | 28.42524 | -81.29972 | 102 ft | 7 kts | 314° |
| 2026-04-25 16:18 | 28.42539 | -81.29988 | 103 ft | 0 kts | 316° |